LFLX 301030Z AUTO 07012KT 020V120 CAVOK 22/06 Q1018 NOSIG

ElémentsDécodage
LFLX Station météo située sur l'aérodrome de CHATEAUROUX Déols
301030Z émis le 30 du mois à 10h30 UTC
AUTO Bulletin édité par un automate
07012KT vent du 070°, 12 noeuds
020V120 vent de direction variable entre 020° et 120°
CAVOK Ceiling And Visibility OK
- Visibilité de 10 Km ou plus
- Pas de nuage au-dessous de 1500m ou au-dessous de l'altitude minimale du secteur la plus élevée (si>1500m) et absence de CB
- pas de temps présent significatif
22/06 température 22°C, point de rosée 06°C
 soit une humidité relative de 35%
Q1018 la pression au niveau de la mer (QNH) est de 1018 hPa
NOSIG Pas de changement significatif prévu au cours des deux heures suivant l'heure de l'observation